Time;durP1;ratioP1;P1;durP2;ratioP2;P2;SDS_P1;SDS_P2;PMS_P1;PMS_P2;Temp;Humidity;BMP_temperature;BMP_pressure;BME280_temperature;BME280_humidity;BME280_pressure;Samples;Min_cycle;Max_cycle;Signal;HPM_P1;HPM_P2
2022/12/22 03:30:09;;;;;;;75.03;28.47;;;2.30;99.90;;;;;;10295864;28;20043;-90
2022/12/22 03:35:09;;;;;;;78.77;28.53;;;2.30;99.90;;;;;;10295536;28;20031;-86
2022/12/22 03:40:10;;;;;;;87.87;35.13;;;2.30;99.90;;;;;;10277988;28;20082;-88
2022/12/22 03:50:30;;;;;;;71.20;29.50;;;2.20;99.90;;;;;;10292778;28;20046;-89
2022/12/22 03:55:30;;;;;;;79.47;32.37;;;2.20;99.90;;;;;;10276182;28;20026;-88
2022/12/22 04:00:31;;;;;;;81.13;30.93;;;2.20;99.90;;;;;;10271619;28;20781;-86
2022/12/22 04:05:31;;;;;;;80.60;31.77;;;2.10;99.90;;;;;;10279486;28;20041;-86
2022/12/22 04:15:51;;;;;;;79.33;33.73;;;2.00;99.90;;;;;;10294366;28;20050;-87
2022/12/22 04:20:52;;;;;;;94.27;34.77;;;1.90;99.90;;;;;;10296520;28;20034;-87
2022/12/22 04:25:52;;;;;;;91.63;36.20;;;1.90;99.90;;;;;;10275936;28;20046;-86
2022/12/22 04:30:53;;;;;;;104.00;34.27;;;1.90;99.90;;;;;;10283197;28;20034;-86
2022/12/22 04:35:53;;;;;;;111.47;38.27;;;1.90;99.90;;;;;;10292415;28;20035;-86
2022/12/22 04:40:54;;;;;;;101.53;37.87;;;1.90;99.90;;;;;;10281796;28;20088;-88
2022/12/22 04:45:56;;;;;;;105.97;38.07;;;1.90;99.90;;;;;;10275760;28;20401;-90
2022/12/22 04:50:58;;;;;;;106.90;37.17;;;1.90;99.90;;;;;;10293889;28;20129;-85
2022/12/22 04:56:02;;;;;;;98.60;37.83;;;1.90;99.90;;;;;;10257467;28;20053;-86
2022/12/22 05:01:11;;;;;;;101.10;40.37;;;1.90;99.90;;;;;;10274752;28;20650;-87
2022/12/22 05:06:12;;;;;;;101.83;40.90;;;2.00;99.90;;;;;;10297729;28;20047;-87
2022/12/22 05:11:13;;;;;;;103.43;38.97;;;2.00;99.90;;;;;;10264294;28;20371;-88
2022/12/22 05:16:15;;;;;;;104.13;40.23;;;2.00;99.90;;;;;;10275921;28;20065;-85
2022/12/22 05:21:18;;;;;;;103.83;40.13;;;2.00;99.90;;;;;;10288222;28;20050;-85
2022/12/22 05:26:19;;;;;;;99.73;38.57;;;2.00;99.90;;;;;;10296458;28;20042;-86
2022/12/22 05:31:22;;;;;;;102.77;40.63;;;2.00;99.90;;;;;;10297792;28;20034;-86
2022/12/22 05:36:22;;;;;;;93.67;35.93;;;2.10;99.90;;;;;;10292249;28;20042;-86
2022/12/22 05:41:23;;;;;;;96.87;39.30;;;2.10;99.90;;;;;;10272145;28;20026;-86
2022/12/22 05:46:24;;;;;;;103.33;40.00;;;2.10;99.90;;;;;;10298417;28;20045;-89
2022/12/22 05:51:24;;;;;;;97.33;38.00;;;2.20;99.90;;;;;;10298127;28;20031;-89
2022/12/22 05:56:25;;;;;;;94.33;35.27;;;2.20;99.90;;;;;;10268874;28;20677;-85
2022/12/22 06:01:25;;;;;;;98.37;37.63;;;2.20;99.90;;;;;;10278746;28;20030;-87
2022/12/22 06:06:26;;;;;;;104.23;43.43;;;2.20;99.90;;;;;;10295176;28;20052;-87
2022/12/22 06:11:26;;;;;;;111.30;48.77;;;2.20;99.90;;;;;;10282064;28;20077;-86
2022/12/22 06:16:27;;;;;;;106.20;39.37;;;2.30;99.90;;;;;;10285781;28;20058;-84
2022/12/22 06:21:27;;;;;;;103.50;41.07;;;2.30;99.90;;;;;;10307804;28;20019;-85
2022/12/22 06:26:28;;;;;;;109.23;46.27;;;2.30;99.90;;;;;;10295261;28;20750;-85
2022/12/22 06:31:28;;;;;;;128.03;48.00;;;2.40;99.90;;;;;;10302171;28;20054;-89
2022/12/22 06:36:29;;;;;;;133.37;46.43;;;2.40;99.90;;;;;;10277361;28;20057;-86
2022/12/22 06:46:49;;;;;;;168.83;70.87;;;2.40;99.90;;;;;;10292401;28;20046;-88
2022/12/22 06:51:49;;;;;;;213.30;87.10;;;2.50;99.90;;;;;;10276514;28;20031;-89
2022/12/22 06:56:50;;;;;;;212.80;83.43;;;2.40;99.90;;;;;;10273950;28;20037;-86
2022/12/22 07:01:50;;;;;;;195.57;74.57;;;2.50;99.90;;;;;;10265461;28;20039;-85
2022/12/22 07:06:51;;;;;;;244.77;101.20;;;2.50;99.90;;;;;;10282928;28;20042;-89
2022/12/22 07:11:51;;;;;;;222.90;94.00;;;2.60;99.90;;;;;;10294372;28;20402;-86
2022/12/22 07:16:52;;;;;;;196.53;81.77;;;2.60;99.90;;;;;;10287453;28;20089;-88
2022/12/22 07:21:52;;;;;;;189.50;77.37;;;2.70;99.90;;;;;;10292615;28;20018;-85
2022/12/22 07:26:53;;;;;;;151.23;57.30;;;2.80;99.90;;;;;;10276439;28;20813;-84
2022/12/22 07:31:53;;;;;;;142.97;51.53;;;2.90;99.90;;;;;;10293298;28;20065;-88
2022/12/22 07:36:54;;;;;;;136.37;54.77;;;3.00;99.90;;;;;;10276036;28;20184;-85
2022/12/22 07:47:13;;;;;;;122.20;48.13;;;3.10;99.90;;;;;;10284588;28;20047;-89
2022/12/22 07:52:14;;;;;;;165.43;73.53;;;3.10;99.90;;;;;;10281138;28;20038;-86
2022/12/22 07:57:14;;;;;;;214.03;94.10;;;3.10;99.90;;;;;;10296984;28;20034;-87
2022/12/22 08:02:15;;;;;;;171.07;73.00;;;3.10;99.90;;;;;;10265346;28;20039;-87
2022/12/22 08:07:16;;;;;;;191.43;91.73;;;3.10;99.90;;;;;;10278695;28;20046;-86
2022/12/22 08:12:16;;;;;;;291.07;162.33;;;3.10;99.90;;;;;;10283866;28;20030;-86
2022/12/22 08:17:17;;;;;;;207.50;107.03;;;3.30;99.90;;;;;;10283610;28;20055;-87
2022/12/22 08:22:17;;;;;;;177.70;97.57;;;3.50;99.90;;;;;;10282054;28;20030;-86
2022/12/22 08:27:34;;;;;;;145.07;67.47;;;3.70;99.90;;;;;;10279008;28;20074;-88
2022/12/22 08:32:37;;;;;;;120.83;54.40;;;3.70;99.90;;;;;;10285278;28;20030;-88
2022/12/22 08:37:42;;;;;;;107.37;45.93;;;3.80;99.90;;;;;;10269290;28;20399;-85
2022/12/22 08:42:43;;;;;;;100.00;43.97;;;3.90;99.90;;;;;;10282336;28;20051;-87
2022/12/22 08:47:43;;;;;;;104.83;48.80;;;3.90;99.90;;;;;;10289333;28;20133;-84
2022/12/22 08:52:44;;;;;;;118.53;55.20;;;3.80;99.90;;;;;;10288320;28;20718;-87
2022/12/22 08:57:48;;;;;;;106.93;47.97;;;3.80;99.90;;;;;;10288725;28;20049;-87
2022/12/22 09:02:49;;;;;;;115.13;50.23;;;3.80;99.90;;;;;;10290158;28;20042;-85
2022/12/22 09:07:49;;;;;;;183.83;88.27;;;4.10;99.90;;;;;;10274024;28;20057;-87
2022/12/22 09:12:50;;;;;;;167.87;64.97;;;4.10;99.90;;;;;;10300332;28;20046;-86
2022/12/22 09:17:50;;;;;;;447.10;219.03;;;4.20;99.90;;;;;;10297165;28;20143;-88
2022/12/22 09:22:51;;;;;;;226.60;94.23;;;4.40;99.90;;;;;;10278900;28;20031;-86
2022/12/22 09:27:51;;;;;;;125.23;56.80;;;4.60;99.90;;;;;;10269408;28;20038;-85
2022/12/22 09:32:54;;;;;;;142.47;55.30;;;4.80;99.90;;;;;;10287247;28;20042;-85
2022/12/22 09:37:54;;;;;;;93.60;41.23;;;5.00;99.90;;;;;;10298227;28;20031;-85
2022/12/22 09:42:56;;;;;;;88.57;41.27;;;5.20;99.90;;;;;;10291258;28;20195;-86
2022/12/22 09:47:57;;;;;;;83.33;38.43;;;5.30;99.90;;;;;;10280571;28;20047;-85
2022/12/22 09:53:02;;;;;;;95.73;44.40;;;5.50;99.90;;;;;;10285933;28;20045;-86
2022/12/22 09:58:02;;;;;;;65.57;33.53;;;5.60;99.90;;;;;;10301455;28;20092;-85
2022/12/22 10:03:21;;;;;;;97.90;43.83;;;5.80;99.90;;;;;;10288755;28;20105;-85
2022/12/22 10:08:28;;;;;;;94.63;51.80;;;6.00;99.90;;;;;;10300155;28;20046;-86
2022/12/22 10:13:29;;;;;;;142.10;69.87;;;6.20;99.90;;;;;;10290870;28;20414;-88
2022/12/22 10:18:30;;;;;;;93.60;47.17;;;6.30;99.90;;;;;;10290720;28;20065;-85
2022/12/22 10:23:34;;;;;;;62.63;31.30;;;6.40;99.90;;;;;;10275800;28;20437;-87
2022/12/22 10:28:40;;;;;;;52.27;24.23;;;6.40;99.90;;;;;;10291619;28;20478;-87
2022/12/22 10:33:41;;;;;;;;;;;6.50;99.90;;;;;;10306639;28;20558;-85
2022/12/22 10:39:02;;;;;;;39.60;21.40;;;6.50;99.90;;;;;;10282549;28;19918;-85
2022/12/22 10:44:10;;;;;;;44.47;22.27;;;6.50;99.90;;;;;;10292960;28;20046;-85
2022/12/22 10:49:25;;;;;;;45.30;23.07;;;6.50;99.90;;;;;;10291189;28;20105;-87
2022/12/22 10:54:31;;;;;;;33.80;18.37;;;6.50;99.90;;;;;;10282155;28;20428;-85
2022/12/22 10:59:33;;;;;;;42.43;20.43;;;6.60;99.90;;;;;;10271645;28;20540;-85
2022/12/22 11:04:33;;;;;;;37.07;18.97;;;6.60;99.90;;;;;;10301593;28;20075;-84
2022/12/22 11:09:35;;;;;;;39.97;18.87;;;6.70;99.90;;;;;;10279309;28;20476;-85
2022/12/22 11:14:41;;;;;;;34.77;16.67;;;6.70;99.90;;;;;;10294549;28;20053;-86
2022/12/22 11:19:55;;;;;;;52.40;26.77;;;6.80;99.90;;;;;;10286224;28;20525;-86
2022/12/22 11:25:13;;;;;;;36.93;18.37;;;6.60;99.90;;;;;;10281200;28;20574;-84
2022/12/22 11:30:24;;;;;;;42.80;19.33;;;6.40;99.90;;;;;;10269879;28;20124;-86
2022/12/22 11:35:46;;;;;;;50.10;24.30;;;6.20;99.90;;;;;;10281180;28;20025;-84
2022/12/22 11:40:56;;;;;;;60.93;31.10;;;6.10;99.90;;;;;;10274097;28;20471;-85
2022/12/22 11:46:12;;;;;;;49.83;25.70;;;6.00;99.90;;;;;;10276044;28;20047;-83
2022/12/22 11:51:19;;;;;;;55.72;28.83;;;5.90;99.90;;;;;;10287862;28;20845;-86
2022/12/22 11:56:28;;;;;;;52.00;23.77;;;6.00;99.90;;;;;;10291192;28;20053;-84
2022/12/22 12:01:46;;;;;;;50.40;23.37;;;6.20;99.90;;;;;;10266423;28;20042;-86
2022/12/22 12:07:32;;;;;;;59.67;26.33;;;6.40;99.90;;;;;;10278273;28;20042;-88
2022/12/22 12:12:57;;;;;;;52.83;25.10;;;6.50;99.90;;;;;;10281245;28;20042;-86
2022/12/22 12:18:37;;;;;;;76.33;32.43;;;6.50;99.90;;;;;;10282920;28;20058;-87
2022/12/22 12:24:02;;;;;;;57.93;25.17;;;6.60;99.90;;;;;;10291557;28;20093;-84
2022/12/22 12:29:19;;;;;;;87.97;34.47;;;6.50;99.90;;;;;;10262828;28;20089;-87
2022/12/22 12:34:21;;;;;;;99.03;38.03;;;6.60;99.90;;;;;;10288201;28;20030;-87
2022/12/22 12:39:31;;;;;;;78.20;36.53;;;6.70;99.90;;;;;;10288928;28;20030;-86
2022/12/22 12:44:34;;;;;;;62.93;28.97;;;6.90;99.90;;;;;;10285316;28;20061;-84
2022/12/22 12:49:35;;;;;;;66.27;32.03;;;7.00;99.90;;;;;;10285695;28;20113;-85
2022/12/22 12:54:35;;;;;;;61.97;33.07;;;6.70;99.90;;;;;;10279356;28;20152;-84
2022/12/22 12:59:39;;;;;;;49.30;23.10;;;6.50;99.90;;;;;;10290947;28;20489;-83
2022/12/22 13:05:03;;;;;;;73.93;37.73;;;6.40;99.90;;;;;;10267102;28;20046;-85
2022/12/22 13:10:21;;;;;;;48.33;23.10;;;6.30;99.90;;;;;;10270647;28;20022;-87
2022/12/22 13:15:34;;;;;;;123.43;51.70;;;6.20;99.90;;;;;;10283819;28;20058;-86
2022/12/22 13:20:36;;;;;;;198.20;97.47;;;6.00;99.90;;;;;;10271475;28;20028;-87
2022/12/22 13:25:46;;;;;;;76.53;32.63;;;5.90;99.90;;;;;;10279887;28;20038;-86
2022/12/22 13:30:50;;;;;;;83.67;41.93;;;5.80;99.90;;;;;;10289432;28;20031;-85
2022/12/22 13:35:51;;;;;;;107.30;50.60;;;5.70;99.90;;;;;;10274951;28;20038;-85
2022/12/22 13:40:52;;;;;;;113.30;49.57;;;5.60;99.90;;;;;;10278799;28;20069;-83
2022/12/22 13:45:56;;;;;;;223.20;87.10;;;5.40;99.90;;;;;;10279761;28;20126;-84
2022/12/22 13:51:00;;;;;;;227.03;99.97;;;5.30;99.90;;;;;;10301329;28;20117;-87
2022/12/22 13:56:04;;;;;;;187.23;73.70;;;5.20;99.90;;;;;;10278269;28;20133;-87
2022/12/22 14:01:10;;;;;;;111.40;47.70;;;5.20;99.90;;;;;;10284399;28;20027;-85
2022/12/22 14:06:40;;;;;;;94.53;43.17;;;5.20;99.90;;;;;;10292767;28;20074;-85
2022/12/22 14:12:18;;;;;;;86.23;33.53;;;5.20;99.90;;;;;;10256823;28;20260;-85
2022/12/22 14:17:19;;;;;;;71.97;31.17;;;5.10;99.90;;;;;;10174843;28;20051;-85
2022/12/22 14:22:32;;;;;;;76.67;30.77;;;5.10;99.90;;;;;;10249443;28;20562;-89
2022/12/22 14:27:47;;;;;;;64.17;26.70;;;5.10;99.90;;;;;;10239261;28;20039;-85
2022/12/22 14:32:50;;;;;;;62.60;28.63;;;5.10;99.90;;;;;;10253627;28;20037;-87
2022/12/22 14:38:01;;;;;;;73.33;32.43;;;5.20;99.90;;;;;;10245601;28;20142;-86
2022/12/22 14:43:05;;;;;;;92.47;40.90;;;5.10;99.90;;;;;;10250322;28;20039;-89
2022/12/22 14:48:08;;;;;;;175.37;65.17;;;5.00;99.90;;;;;;10256779;28;20058;-86
2022/12/22 14:53:13;;;;;;;100.90;41.20;;;4.90;99.90;;;;;;10251228;28;20125;-90
2022/12/22 14:58:22;;;;;;;72.30;29.87;;;4.90;99.90;;;;;;10252085;28;20045;-87
2022/12/22 15:03:35;;;;;;;92.93;41.53;;;4.80;99.90;;;;;;10255473;28;20031;-85
2022/12/22 15:08:41;;;;;;;94.80;38.53;;;4.70;99.90;;;;;;10258591;28;20777;-85
2022/12/22 15:13:43;;;;;;;;;;;4.60;99.90;;;;;;10258672;28;20027;-85
2022/12/22 15:18:45;;;;;;;78.60;32.20;;;4.60;99.90;;;;;;10284102;28;19958;-85
2022/12/22 15:23:46;;;;;;;63.70;27.67;;;4.50;99.90;;;;;;10294011;28;20030;-84
2022/12/22 15:28:46;;;;;;;94.57;38.07;;;4.50;99.90;;;;;;10288929;28;20470;-84
2022/12/22 15:33:47;;;;;;;72.20;31.70;;;4.60;99.90;;;;;;10292127;28;20105;-82
2022/12/22 15:38:48;;;;;;;66.40;31.90;;;4.50;99.90;;;;;;10287326;28;20599;-85
2022/12/22 15:43:48;;;;;;;71.17;32.30;;;4.50;99.90;;;;;;10290391;28;20436;-83
2022/12/22 15:48:49;;;;;;;85.87;39.03;;;4.50;99.90;;;;;;10287287;28;20132;-83
2022/12/22 15:53:50;;;;;;;128.53;60.53;;;4.40;99.90;;;;;;10286692;28;20074;-83
2022/12/22 15:58:51;;;;;;;104.00;51.70;;;4.40;99.90;;;;;;10288061;28;20114;-83
2022/12/22 16:03:51;;;;;;;95.73;46.77;;;4.40;99.90;;;;;;10296144;28;20039;-84
2022/12/22 16:08:53;;;;;;;103.37;51.50;;;4.40;99.90;;;;;;10293095;28;20038;-84
2022/12/22 16:13:53;;;;;;;87.80;41.90;;;4.40;99.90;;;;;;10290585;28;20038;-83
2022/12/22 16:18:54;;;;;;;80.50;41.20;;;4.50;99.90;;;;;;10263686;28;20050;-83
2022/12/22 16:23:55;;;;;;;73.77;36.67;;;4.60;99.90;;;;;;10283855;28;20435;-84
2022/12/22 16:28:57;;;;;;;63.90;31.13;;;4.70;99.90;;;;;;10285317;28;20030;-84
2022/12/22 16:33:58;;;;;;;98.10;41.27;;;4.80;99.90;;;;;;10283125;28;20023;-82
2022/12/22 16:38:58;;;;;;;73.50;34.90;;;4.90;99.90;;;;;;10290105;28;20046;-88
2022/12/22 16:44:00;;;;;;;65.20;31.50;;;4.90;99.90;;;;;;10287440;28;20027;-83
2022/12/22 16:49:00;;;;;;;67.53;29.90;;;4.90;99.90;;;;;;10286365;28;20037;-86
2022/12/22 16:54:01;;;;;;;52.83;24.23;;;5.00;99.90;;;;;;10282461;28;20581;-84
2022/12/22 16:59:03;;;;;;;65.77;29.53;;;4.90;99.90;;;;;;10283177;28;20141;-81
2022/12/22 17:04:09;;;;;;;62.20;27.40;;;5.00;99.90;;;;;;10288505;28;20030;-86
2022/12/22 17:09:16;;;;;;;51.33;23.00;;;5.10;99.90;;;;;;10282759;28;20042;-86
2022/12/22 17:14:30;;;;;;;47.30;22.33;;;5.10;99.90;;;;;;10281575;28;20031;-84
2022/12/22 17:19:31;;;;;;;48.67;24.13;;;5.10;99.90;;;;;;10270970;28;20054;-84
2022/12/22 17:24:31;;;;;;;62.23;27.90;;;5.10;99.90;;;;;;10288850;28;20503;-82
2022/12/22 17:29:33;;;;;;;44.23;20.83;;;5.10;99.90;;;;;;10286042;28;20066;-87
2022/12/22 17:34:34;;;;;;;55.67;23.20;;;5.10;99.90;;;;;;10269448;28;20030;-85
2022/12/22 17:39:37;;;;;;;55.10;24.27;;;5.10;99.90;;;;;;10281975;28;20029;-84
2022/12/22 17:44:38;;;;;;;66.97;29.17;;;5.10;99.90;;;;;;10296013;28;20073;-85
2022/12/22 17:49:38;;;;;;;99.60;38.50;;;5.10;99.90;;;;;;10290042;28;20452;-83
2022/12/22 17:54:39;;;;;;;111.20;44.30;;;5.00;99.90;;;;;;10289227;28;20154;-83
2022/12/22 17:59:39;;;;;;;93.37;40.73;;;4.90;99.90;;;;;;10265633;28;20471;-84
2022/12/22 18:04:40;;;;;;;84.67;34.93;;;4.90;99.90;;;;;;10289235;28;20035;-86
2022/12/22 18:10:02;;;;;;;126.30;47.90;;;4.90;99.90;;;;;;10284464;28;20062;-81
2022/12/22 18:15:32;;;;;;;76.20;31.03;;;4.80;99.90;;;;;;10282776;28;20023;-85
2022/12/22 18:20:41;;;;;;;87.33;36.60;;;4.90;99.90;;;;;;10217208;29;20062;-86
2022/12/22 18:25:57;;;;;;;75.20;31.77;;;4.80;99.90;;;;;;10205912;29;20066;-85
2022/12/22 18:30:58;;;;;;;88.25;34.95;;;4.80;99.90;;;;;;10207710;29;20039;-85
2022/12/22 18:35:59;;;;;;;56.87;24.13;;;4.80;99.90;;;;;;10200048;29;20056;-83
2022/12/22 18:40:59;;;;;;;66.17;29.53;;;4.80;99.90;;;;;;10200673;29;20036;-83
2022/12/22 18:46:00;;;;;;;60.47;27.57;;;4.90;99.90;;;;;;10198636;29;20039;-85
2022/12/22 18:51:00;;;;;;;57.17;26.00;;;4.90;99.90;;;;;;10212397;29;20032;-84
2022/12/22 18:56:01;;;;;;;52.67;23.80;;;4.90;99.90;;;;;;10222888;29;20515;-83
2022/12/22 19:01:02;;;;;;;55.60;26.10;;;4.90;99.90;;;;;;10222680;29;20724;-85
2022/12/22 19:06:03;;;;;;;52.77;26.53;;;4.90;99.90;;;;;;10202492;29;20068;-87
2022/12/22 19:11:30;;;;;;;60.90;27.13;;;5.00;99.90;;;;;;10223118;28;20538;-83
2022/12/22 19:16:30;;;;;;;51.17;23.37;;;5.00;99.90;;;;;;10202712;28;20054;-87
2022/12/22 19:21:31;;;;;;;52.00;23.77;;;5.00;99.90;;;;;;10266811;28;20642;-83
2022/12/22 19:26:31;;;;;;;48.63;22.40;;;5.00;99.90;;;;;;10274914;28;20729;-81
2022/12/22 19:31:35;;;;;;;65.57;28.13;;;5.00;99.90;;;;;;10288706;28;20023;-82
2022/12/22 19:36:35;;;;;;;47.97;23.67;;;5.00;99.90;;;;;;10278422;28;20018;-83
2022/12/22 19:41:49;;;;;;;51.50;23.87;;;5.00;99.90;;;;;;10271501;28;20034;-83
2022/12/22 19:47:35;;;;;;;50.67;23.60;;;5.00;99.90;;;;;;10297533;28;20141;-87
2022/12/22 19:52:35;;;;;;;49.87;21.93;;;5.00;99.90;;;;;;10277994;28;20061;-81
2022/12/22 19:57:40;;;;;;;60.50;27.13;;;5.10;99.90;;;;;;10273977;28;20051;-83
2022/12/22 20:02:41;;;;;;;53.20;26.00;;;5.00;99.90;;;;;;10289322;28;20863;-85
2022/12/22 20:07:42;;;;;;;58.47;27.50;;;5.00;99.90;;;;;;10275781;28;20056;-84
2022/12/22 20:13:22;;;;;;;52.23;22.63;;;5.00;99.90;;;;;;10294437;28;20049;-83
2022/12/22 20:18:27;;;;;;;48.93;22.77;;;4.90;99.90;;;;;;10271859;28;20038;-84
2022/12/22 20:23:30;;;;;;;50.93;23.27;;;4.90;99.90;;;;;;10278243;28;20062;-85
2022/12/22 20:28:34;;;;;;;58.87;26.03;;;4.90;99.90;;;;;;10280957;28;20147;-83
2022/12/22 20:33:35;;;;;;;67.33;29.03;;;4.90;99.90;;;;;;10295928;28;20034;-84
2022/12/22 20:38:39;;;;;;;63.17;25.33;;;5.00;99.90;;;;;;10274711;28;20053;-85
2022/12/22 20:43:40;;;;;;;59.00;26.57;;;5.00;99.90;;;;;;10276096;28;20075;-83
2022/12/22 20:48:54;;;;;;;46.73;21.03;;;4.90;99.90;;;;;;10289589;28;20047;-85
2022/12/22 20:53:56;;;;;;;53.17;22.20;;;5.00;99.90;;;;;;10293414;28;20031;-83
2022/12/22 20:59:05;;;;;;;45.80;22.13;;;4.90;99.90;;;;;;10303081;28;20057;-83
2022/12/22 21:04:07;;;;;;;50.17;22.87;;;4.80;99.90;;;;;;10281506;28;20086;-81
2022/12/22 21:09:11;;;;;;;56.40;22.60;;;4.80;99.90;;;;;;10293703;28;20031;-81
2022/12/22 21:14:12;;;;;;;48.40;23.33;;;4.80;99.90;;;;;;10301517;28;20745;-82
2022/12/22 21:19:17;;;;;;;47.57;21.03;;;4.70;99.90;;;;;;10301266;28;20042;-84
2022/12/22 21:24:18;;;;;;;45.53;20.52;;;4.70;99.90;;;;;;10304924;28;20030;-82
2022/12/22 21:29:22;;;;;;;49.27;22.43;;;4.70;99.90;;;;;;10291171;28;20478;-82
2022/12/22 21:34:22;;;;;;;42.90;20.63;;;4.80;99.90;;;;;;10292352;28;20105;-83
2022/12/22 21:39:28;;;;;;;47.70;21.57;;;4.80;99.90;;;;;;10296751;28;20386;-82
2022/12/22 21:44:40;;;;;;;53.38;23.33;;;4.80;99.90;;;;;;10291693;28;20565;-83
2022/12/22 21:49:41;;;;;;;49.20;21.60;;;4.80;99.90;;;;;;10273392;28;20474;-86
2022/12/22 21:54:42;;;;;;;49.47;21.93;;;4.80;99.90;;;;;;10272102;28;20037;-84
2022/12/22 21:59:42;;;;;;;47.77;22.87;;;4.80;99.90;;;;;;10293592;28;20050;-85
2022/12/22 22:04:43;;;;;;;48.47;22.57;;;4.90;99.90;;;;;;10294699;28;20371;-84
2022/12/22 22:09:43;;;;;;;45.17;20.60;;;4.80;99.90;;;;;;10275245;28;20154;-83
2022/12/22 22:14:44;;;;;;;51.87;22.80;;;4.90;99.90;;;;;;10284028;28;20398;-83
2022/12/22 22:19:44;;;;;;;50.70;25.37;;;4.90;99.90;;;;;;10294513;28;20051;-82
2022/12/22 22:24:57;;;;;;;57.37;28.03;;;4.90;99.90;;;;;;10278616;28;20035;-82
2022/12/22 22:30:29;;;;;;;57.27;25.23;;;4.90;99.90;;;;;;10285440;28;20134;-82
2022/12/22 22:35:41;;;;;;;59.00;25.80;;;4.90;99.90;;;;;;10271866;28;20030;-83
2022/12/22 22:40:42;;;;;;;58.67;26.53;;;4.80;99.90;;;;;;10281709;28;20137;-86
2022/12/22 22:45:44;;;;;;;66.77;31.37;;;4.80;99.90;;;;;;10285783;28;20050;-86
2022/12/22 22:50:45;;;;;;;63.83;30.10;;;4.80;99.90;;;;;;10292329;28;20562;-82
2022/12/22 22:55:46;;;;;;;59.13;28.20;;;4.80;99.90;;;;;;10295258;28;20039;-82
2022/12/22 23:00:46;;;;;;;65.43;30.90;;;4.70;99.90;;;;;;10295136;28;20038;-87
2022/12/22 23:05:47;;;;;;;62.70;30.13;;;4.70;99.90;;;;;;10290374;28;20043;-83
2022/12/22 23:10:48;;;;;;;62.53;29.23;;;4.70;99.90;;;;;;10297145;28;20482;-83
2022/12/22 23:16:08;;;;;;;66.77;33.13;;;4.60;99.90;;;;;;10290682;28;20042;-83
2022/12/22 23:21:10;;;;;;;82.13;38.30;;;4.50;99.90;;;;;;10290447;28;20453;-84
2022/12/22 23:26:10;;;;;;;84.40;35.43;;;4.50;99.90;;;;;;10292511;28;20561;-82
2022/12/22 23:31:12;;;;;;;78.43;35.70;;;4.50;99.90;;;;;;10289741;28;20037;-86
2022/12/22 23:36:12;;;;;;;73.53;32.97;;;4.40;99.90;;;;;;10293969;28;20543;-82
2022/12/22 23:41:13;;;;;;;80.50;35.67;;;4.40;99.90;;;;;;10290023;28;20067;-82
2022/12/22 23:46:16;;;;;;;87.40;37.40;;;4.40;99.90;;;;;;10291240;28;20046;-81
2022/12/22 23:51:17;;;;;;;87.97;37.47;;;4.40;99.90;;;;;;10293751;28;20030;-80
2022/12/22 23:56:18;;;;;;;106.63;47.30;;;4.30;99.90;;;;;;10295438;28;20019;-80
